< < Back
Terminal Aerodrome Forecast


Current Version              Previous Versions:   1  2  3  4  5  6  7  8  9  

Terminal Aerodrome Forecast

448
FTUS42 KFFC 281735
TAFCSG
TAF
KCSG 281735Z 2818/2918 VRB03KT P6SM SKC
     FM290000 00000KT P6SM SKC
     FM291600 16004KT P6SM SCT250=

Latest METAR

287
SAUS70 KWBC 290500
MTRCSG
METAR KCSG 290451Z AUTO 00000KT 10SM CLR 02/M02 A3030 RMK AO2 SLP261
T00221022 401221006


USA.gov is the U.S. government's official web portal to all federal, state and local government web resources and services.